Terminal Aerodrome Forecast
Issued by NWS

Home | Current Version | Previous Version | Text Only | Print | Product List | Glossary On
Versions: 1 2 3 4 5 6 7 8 9 10 11 12 13 14
703
FTUS46 KSTO 230410 AAB
TAFSMF
TAF AMD
KSMF 230410Z 2304/2324 32008KT P6SM SCT008 OVC017
     FM230700 33005KT 4SM BR OVC007
      TEMPO 2307/2311 2SM BR BKN003
     FM231100 VRB04KT 1/4SM FG OVC001
     FM231800 VRB03KT 1SM BR OVC003
     FM232000 VRB03KT 4SM BR BKN015=

USA.gov is the U.S. government's official web portal to all federal, state and local government web resources and services.